Time,TemperatureF,DewpointF,PressureIn,WindDirection,WindDirectionDegrees,WindSpeedMPH,WindSpeedGustMPH,Humidity,HourlyPrecipIn,Conditions,Clouds,dailyrainin,SoftwareType,DateUTC
2013-04-30 00:12:00,51.3,34.3,30.16,ESE,112,1.7,-999.0,52,-99.99,,,0.00,Acu-Link.com,2013-04-30 04:12:00,
2013-04-30 00:27:00,50.9,33.9,30.16,ENE,67,0.0,-999.0,52,-99.99,,,0.00,Acu-Link.com,2013-04-30 04:27:00,
2013-04-30 00:42:00,50.5,36.3,30.16,ESE,112,0.0,-999.0,58,-99.99,,,0.00,Acu-Link.com,2013-04-30 04:42:00,
2013-04-30 00:58:00,50.0,34.9,30.16,East,90,0.0,-999.0,56,-99.99,,,0.00,Acu-Link.com,2013-04-30 04:58:00,
2013-04-30 01:13:00,49.5,35.3,30.16,ENE,67,0.0,-999.0,58,-99.99,,,0.00,Acu-Link.com,2013-04-30 05:13:00,
2013-04-30 01:28:00,49.1,35.0,30.16,East,90,0.0,-999.0,58,-99.99,,,0.00,Acu-Link.com,2013-04-30 05:28:00,
2013-04-30 01:43:00,48.0,35.2,30.16,West,270,0.0,-999.0,61,-99.99,,,0.00,Acu-Link.com,2013-04-30 05:43:00,
2013-04-30 01:58:00,46.6,35.1,30.16,East,90,0.0,-999.0,64,-99.99,,,0.00,Acu-Link.com,2013-04-30 05:58:00,
2013-04-30 02:13:00,45.3,36.1,30.16,ESE,112,0.0,-999.0,70,-99.99,,,0.00,Acu-Link.com,2013-04-30 06:13:00,
2013-04-30 02:28:00,44.2,35.8,30.16,ESE,112,0.0,-999.0,72,-99.99,,,0.00,Acu-Link.com,2013-04-30 06:28:00,
2013-04-30 02:43:00,43.2,34.8,30.16,East,90,0.0,-999.0,72,-99.99,,,0.00,Acu-Link.com,2013-04-30 06:43:00,
2013-04-30 02:58:00,42.4,34.4,30.16,NNE,22,0.0,-999.0,73,-99.99,,,0.00,Acu-Link.com,2013-04-30 06:58:00,
2013-04-30 03:14:00,41.5,34.2,30.16,NNE,22,0.0,-999.0,75,-99.99,,,0.00,Acu-Link.com,2013-04-30 07:14:00,
2013-04-30 03:29:00,40.6,34.3,30.16,ENE,67,0.0,-999.0,78,-99.99,,,0.00,Acu-Link.com,2013-04-30 07:29:00,
2013-04-30 03:44:00,40.1,34.7,30.17,ENE,67,0.0,-999.0,81,-99.99,,,0.00,Acu-Link.com,2013-04-30 07:44:00,
2013-04-30 03:59:00,39.4,35.0,30.17,West,270,0.0,-999.0,84,-99.99,,,0.00,Acu-Link.com,2013-04-30 07:59:00,
2013-04-30 04:15:00,39.0,35.2,30.17,West,270,0.0,-999.0,86,-99.99,,,0.00,Acu-Link.com,2013-04-30 08:15:00,
2013-04-30 04:30:00,38.5,34.7,30.17,SE,135,0.0,-999.0,86,-99.99,,,0.00,Acu-Link.com,2013-04-30 08:30:00,
2013-04-30 04:45:00,37.9,34.7,30.17,SE,135,0.0,-999.0,88,-99.99,,,0.00,Acu-Link.com,2013-04-30 08:45:00,
2013-04-30 05:00:00,37.2,34.8,30.18,SE,135,0.0,-999.0,91,-99.99,,,0.00,Acu-Link.com,2013-04-30 09:00:00,
2013-04-30 05:15:00,36.9,34.8,30.19,SE,135,0.0,-999.0,92,-99.99,,,0.00,Acu-Link.com,2013-04-30 09:15:00,
2013-04-30 05:30:00,36.5,35.5,30.19,SE,135,0.0,-999.0,96,-99.99,,,0.00,Acu-Link.com,2013-04-30 09:30:00,
2013-04-30 05:45:00,36.7,35.7,30.20,SSW,202,0.0,-999.0,96,-99.99,,,0.00,Acu-Link.com,2013-04-30 09:45:00,
2013-04-30 06:00:00,36.3,34.7,30.20,SE,135,0.0,-999.0,94,-99.99,,,0.00,Acu-Link.com,2013-04-30 10:00:00,
2013-04-30 06:15:00,36.3,35.0,30.20,SE,135,0.0,-999.0,95,-99.99,,,0.00,Acu-Link.com,2013-04-30 10:15:00,
2013-04-30 06:31:00,36.7,35.1,30.21,SW,225,0.0,-999.0,94,-99.99,,,0.00,Acu-Link.com,2013-04-30 10:31:00,
2013-04-30 06:46:00,37.0,36.0,30.22,ESE,112,0.0,-999.0,96,-99.99,,,0.00,Acu-Link.com,2013-04-30 10:46:00,
2013-04-30 07:01:00,37.6,36.6,30.22,ESE,112,0.0,-999.0,96,-99.99,,,0.00,Acu-Link.com,2013-04-30 11:01:00,
2013-04-30 07:16:00,39.0,38.0,30.22,ESE,112,0.0,-999.0,96,-99.99,,,0.00,Acu-Link.com,2013-04-30 11:16:00,
2013-04-30 07:31:00,41.9,40.0,30.23,West,270,0.0,-999.0,93,-99.99,,,0.00,Acu-Link.com,2013-04-30 11:31:00,
2013-04-30 07:46:00,47.7,41.2,30.23,NW,315,0.0,-999.0,78,-99.99,,,0.00,Acu-Link.com,2013-04-30 11:46:00,
2013-04-30 08:01:00,53.4,41.5,30.23,ESE,112,0.0,-999.0,64,-99.99,,,0.00,Acu-Link.com,2013-04-30 12:01:00,
2013-04-30 08:16:00,58.6,39.0,30.23,ESE,112,0.0,-999.0,48,-99.99,,,0.00,Acu-Link.com,2013-04-30 12:16:00,
2013-04-30 08:31:00,61.3,38.0,30.24,WNW,292,2.2,-999.0,42,-99.99,,,0.00,Acu-Link.com,2013-04-30 12:31:00,
2013-04-30 08:47:00,63.7,34.8,30.23,ESE,112,4.7,-999.0,34,-99.99,,,0.00,Acu-Link.com,2013-04-30 12:47:00,
2013-04-30 09:02:00,65.5,32.4,30.23,SSE,157,2.2,-999.0,29,-99.99,,,0.00,Acu-Link.com,2013-04-30 13:02:00,
2013-04-30 09:17:00,63.7,30.0,30.23,North,0,2.7,-999.0,28,-99.99,,,0.00,Acu-Link.com,2013-04-30 13:17:00,
2013-04-30 09:32:00,64.0,26.5,30.23,SSE,157,3.2,-999.0,24,-99.99,,,0.00,Acu-Link.com,2013-04-30 13:32:00,
2013-04-30 09:47:00,63.5,25.0,30.23,ENE,67,4.7,-999.0,23,-99.99,,,0.00,Acu-Link.com,2013-04-30 13:47:00,
2013-04-30 10:02:00,61.9,24.7,30.23,West,270,2.2,-999.0,24,-99.99,,,0.00,Acu-Link.com,2013-04-30 14:02:00,
2013-04-30 10:17:00,65.5,20.9,30.23,NNW,337,4.7,-999.0,18,-99.99,,,0.00,Acu-Link.com,2013-04-30 14:17:00,
2013-04-30 10:32:00,66.4,24.1,30.23,WSW,247,2.2,-999.0,20,-99.99,,,0.00,Acu-Link.com,2013-04-30 14:32:00,
2013-04-30 10:48:00,64.6,22.6,30.23,SW,225,5.3,-999.0,20,-99.99,,,0.00,Acu-Link.com,2013-04-30 14:48:00,
2013-04-30 11:03:00,67.5,25.0,30.22,NNE,22,3.7,-999.0,20,-99.99,,,0.00,Acu-Link.com,2013-04-30 15:03:00,
2013-04-30 11:18:00,68.2,26.8,30.22,West,270,2.7,-999.0,21,-99.99,,,0.00,Acu-Link.com,2013-04-30 15:18:00,
2013-04-30 11:33:00,66.7,26.7,30.22,SSW,202,5.8,-999.0,22,-99.99,,,0.00,Acu-Link.com,2013-04-30 15:33:00,
2013-04-30 11:48:00,69.3,26.5,30.21,NE,45,4.7,-999.0,20,-99.99,,,0.00,Acu-Link.com,2013-04-30 15:48:00,
2013-04-30 12:03:00,66.9,25.7,30.21,South,180,4.2,-999.0,21,-99.99,,,0.00,Acu-Link.com,2013-04-30 16:03:00,
2013-04-30 12:18:00,66.7,27.7,30.21,SSE,157,4.7,-999.0,23,-99.99,,,0.00,Acu-Link.com,2013-04-30 16:18:00,
2013-04-30 12:33:00,68.9,27.4,30.20,East,90,2.2,-999.0,21,-99.99,,,0.00,Acu-Link.com,2013-04-30 16:33:00,
2013-04-30 12:48:00,70.2,28.4,30.20,SSW,202,6.3,-999.0,21,-99.99,,,0.00,Acu-Link.com,2013-04-30 16:48:00,
2013-04-30 13:03:00,73.6,27.5,30.19,WSW,247,5.8,-999.0,18,-99.99,,,0.00,Acu-Link.com,2013-04-30 17:03:00,
2013-04-30 13:19:00,74.8,28.5,30.19,SSE,157,3.2,-999.0,18,-99.99,,,0.00,Acu-Link.com,2013-04-30 17:19:00,
2013-04-30 13:34:00,72.1,24.9,30.19,ENE,67,4.7,-999.0,17,-99.99,,,0.00,Acu-Link.com,2013-04-30 17:34:00,
2013-04-30 13:49:00,73.2,27.2,30.19,NW,315,3.2,-999.0,18,-99.99,,,0.00,Acu-Link.com,2013-04-30 17:49:00,
2013-04-30 14:04:00,75.4,27.6,30.19,ESE,112,4.7,-999.0,17,-99.99,,,0.00,Acu-Link.com,2013-04-30 18:04:00,
2013-04-30 14:19:00,74.3,25.2,30.19,South,180,4.7,-999.0,16,-99.99,,,0.00,Acu-Link.com,2013-04-30 18:19:00,
2013-04-30 14:34:00,75.0,28.6,30.18,NE,45,4.2,-999.0,18,-99.99,,,0.00,Acu-Link.com,2013-04-30 18:34:00,
2013-04-30 14:49:00,75.0,28.6,30.18,SW,225,8.3,-999.0,18,-99.99,,,0.00,Acu-Link.com,2013-04-30 18:49:00,
2013-04-30 15:04:00,76.1,28.1,30.18,NNW,337,3.7,-999.0,17,-99.99,,,0.00,Acu-Link.com,2013-04-30 19:04:00,
2013-04-30 15:19:00,77.0,28.8,30.17,North,0,4.2,-999.0,17,-99.99,,,0.00,Acu-Link.com,2013-04-30 19:19:00,
2013-04-30 15:35:00,75.9,29.4,30.17,NNE,22,4.2,-999.0,18,-99.99,,,0.00,Acu-Link.com,2013-04-30 19:35:00,
2013-04-30 15:50:00,75.9,28.0,30.17,ENE,67,6.3,-999.0,17,-99.99,,,0.00,Acu-Link.com,2013-04-30 19:50:00,
2013-04-30 16:05:00,75.6,29.1,30.16,NW,315,5.3,-999.0,18,-99.99,,,0.00,Acu-Link.com,2013-04-30 20:05:00,
2013-04-30 16:20:00,74.1,27.9,30.16,NE,45,3.7,-999.0,18,-99.99,,,0.00,Acu-Link.com,2013-04-30 20:20:00,
2013-04-30 16:35:00,74.3,26.7,30.17,NNE,22,2.7,-999.0,17,-99.99,,,0.00,Acu-Link.com,2013-04-30 20:35:00,
2013-04-30 16:50:00,73.0,27.0,30.16,North,0,3.7,-999.0,18,-99.99,,,0.00,Acu-Link.com,2013-04-30 20:50:00,
2013-04-30 17:05:00,74.1,27.9,30.17,ESE,112,5.3,-999.0,18,-99.99,,,0.00,Acu-Link.com,2013-04-30 21:05:00,
2013-04-30 17:20:00,73.6,28.8,30.17,NE,45,7.8,-999.0,19,-99.99,,,0.00,Acu-Link.com,2013-04-30 21:20:00,
2013-04-30 17:35:00,71.8,28.6,30.18,East,90,4.7,-999.0,20,-99.99,,,0.00,Acu-Link.com,2013-04-30 21:35:00,
2013-04-30 17:51:00,71.8,28.6,30.18,NE,45,8.9,-999.0,20,-99.99,,,0.00,Acu-Link.com,2013-04-30 21:51:00,
2013-04-30 18:06:00,67.8,32.6,30.19,SE,135,4.7,-999.0,27,-99.99,,,0.00,Acu-Link.com,2013-04-30 22:06:00,
2013-04-30 18:21:00,68.2,32.9,30.19,South,180,4.7,-999.0,27,-99.99,,,0.00,Acu-Link.com,2013-04-30 22:21:00,
2013-04-30 18:36:00,65.7,32.6,30.20,SSW,202,3.7,-999.0,29,-99.99,,,0.00,Acu-Link.com,2013-04-30 22:36:00,
2013-04-30 18:51:00,66.0,32.8,30.21,East,90,2.7,-999.0,29,-99.99,,,0.00,Acu-Link.com,2013-04-30 22:51:00,
2013-04-30 19:06:00,64.0,33.6,30.21,ESE,112,2.2,-999.0,32,-99.99,,,0.00,Acu-Link.com,2013-04-30 23:06:00,
2013-04-30 19:21:00,61.5,34.3,30.21,South,180,4.2,-999.0,36,-99.99,,,0.00,Acu-Link.com,2013-04-30 23:21:00,
2013-04-30 19:36:00,60.3,34.6,30.22,SSW,202,2.7,-999.0,38,-99.99,,,0.00,Acu-Link.com,2013-04-30 23:36:00,
2013-04-30 19:51:00,58.6,33.7,30.22,SSW,202,4.2,-999.0,39,-99.99,,,0.00,Acu-Link.com,2013-04-30 23:51:00,
2013-04-30 20:07:00,57.6,32.8,30.22,SSE,157,3.7,-999.0,39,-99.99,,,0.00,Acu-Link.com,2013-05-01 00:07:00,
2013-04-30 20:22:00,56.1,32.1,30.23,ESE,112,1.7,-999.0,40,-99.99,,,0.00,Acu-Link.com,2013-05-01 00:22:00,
2013-04-30 20:38:00,54.3,31.1,30.24,East,90,0.0,-999.0,41,-99.99,,,0.00,Acu-Link.com,2013-05-01 00:38:00,
2013-04-30 20:53:00,52.7,30.8,30.24,ESE,112,0.0,-999.0,43,-99.99,,,0.00,Acu-Link.com,2013-05-01 00:53:00,
2013-04-30 21:08:00,51.1,31.6,30.24,ESE,112,1.7,-999.0,47,-99.99,,,0.00,Acu-Link.com,2013-05-01 01:08:00,
2013-04-30 21:23:00,50.0,33.1,30.24,ENE,67,0.0,-999.0,52,-99.99,,,0.00,Acu-Link.com,2013-05-01 01:23:00,
2013-04-30 21:38:00,48.4,33.9,30.24,SE,135,0.0,-999.0,57,-99.99,,,0.00,Acu-Link.com,2013-05-01 01:38:00,
2013-04-30 21:54:00,46.9,34.2,30.24,SE,135,0.0,-999.0,61,-99.99,,,0.00,Acu-Link.com,2013-05-01 01:54:00,
2013-04-30 22:09:00,45.9,33.6,30.25,NNE,22,0.0,-999.0,62,-99.99,,,0.00,Acu-Link.com,2013-05-01 02:09:00,
2013-04-30 22:24:00,44.6,33.2,30.25,NNE,22,0.0,-999.0,64,-99.99,,,0.00,Acu-Link.com,2013-05-01 02:24:00,
2013-04-30 22:39:00,44.4,33.4,30.25,WSW,247,0.0,-999.0,65,-99.99,,,0.00,Acu-Link.com,2013-05-01 02:39:00,
2013-04-30 22:54:00,43.5,33.7,30.26,NW,315,0.0,-999.0,68,-99.99,,,0.00,Acu-Link.com,2013-05-01 02:54:00,
2013-04-30 23:09:00,42.4,34.0,30.25,WNW,292,0.0,-999.0,72,-99.99,,,0.00,Acu-Link.com,2013-05-01 03:09:00,
2013-04-30 23:24:00,42.3,34.3,30.26,SSW,202,0.0,-999.0,73,-99.99,,,0.00,Acu-Link.com,2013-05-01 03:24:00,
2013-04-30 23:39:00,40.6,33.3,30.26,SW,225,0.0,-999.0,75,-99.99,,,0.00,Acu-Link.com,2013-05-01 03:39:00,
2013-04-30 23:54:00,40.5,33.9,30.27,ESE,112,0.0,-999.0,77,-99.99,,,0.00,Acu-Link.com,2013-05-01 03:54:00,